Terminal Aerodrome Forecast
Issued by NWS

Current Version | Previous Version | Graphics & Text | Print | Product List | Glossary Off
Versions: 1 2 3 4 5 6 7 8 9 10 11 12 13 14 15 16 17 18 19 20 21 22 23 24 25 26 27 28

000
FTUS41 KRNK 271140
TAFLWB
TAF
KLWB 271140Z 2712/2812 00000KT P6SM SCT025 OVC040
      TEMPO 2712/2714 5SM -SHRA OVC025
     FM271500 25005KT P6SM SCT015 BKN060
     FM272100 23005KT P6SM SCT080 BKN250
     FM280600 00000KT 4SM BR SCT004=

USA.gov is the U.S. government's official web portal to all federal, state and local government web resources and services.